sensor_id;sensor_type;location;lat;lon;timestamp;P1;durP1;ratioP1;P2;durP2;ratioP2
53245;SDS011;39569;51.090;-1.786;2023-05-07T00:02:06;28.83;;;20.05;;
53245;SDS011;39569;51.090;-1.786;2023-05-07T00:04:33;21.90;;;19.25;;
53245;SDS011;39569;51.090;-1.786;2023-05-07T00:07:02;23.92;;;19.00;;
53245;SDS011;39569;51.090;-1.786;2023-05-07T00:09:29;29.65;;;19.23;;
53245;SDS011;39569;51.090;-1.786;2023-05-07T00:11:56;27.10;;;20.35;;
53245;SDS011;39569;51.090;-1.786;2023-05-07T00:14:22;23.17;;;19.05;;
53245;SDS011;39569;51.090;-1.786;2023-05-07T00:16:49;19.00;;;17.02;;
53245;SDS011;39569;51.090;-1.786;2023-05-07T00:19:17;20.23;;;17.58;;
53245;SDS011;39569;51.090;-1.786;2023-05-07T00:21:44;23.92;;;18.60;;
53245;SDS011;39569;51.090;-1.786;2023-05-07T00:24:11;19.20;;;17.30;;
53245;SDS011;39569;51.090;-1.786;2023-05-07T00:26:38;26.55;;;16.13;;
53245;SDS011;39569;51.090;-1.786;2023-05-07T00:29:04;21.25;;;15.02;;
53245;SDS011;39569;51.090;-1.786;2023-05-07T00:31:31;16.17;;;14.00;;
53245;SDS011;39569;51.090;-1.786;2023-05-07T00:33:58;29.95;;;18.25;;
53245;SDS011;39569;51.090;-1.786;2023-05-07T00:36:26;37.78;;;17.75;;
53245;SDS011;39569;51.090;-1.786;2023-05-07T00:38:53;38.65;;;13.32;;
53245;SDS011;39569;51.090;-1.786;2023-05-07T00:41:21;35.90;;;10.50;;
53245;SDS011;39569;51.090;-1.786;2023-05-07T00:43:47;19.50;;;12.13;;
53245;SDS011;39569;51.090;-1.786;2023-05-07T00:46:16;16.38;;;12.23;;
53245;SDS011;39569;51.090;-1.786;2023-05-07T00:48:44;28.83;;;11.45;;
53245;SDS011;39569;51.090;-1.786;2023-05-07T00:51:11;52.63;;;12.13;;
53245;SDS011;39569;51.090;-1.786;2023-05-07T00:53:40;25.30;;;9.93;;
53245;SDS011;39569;51.090;-1.786;2023-05-07T00:56:06;48.72;;;12.27;;
53245;SDS011;39569;51.090;-1.786;2023-05-07T00:58:33;63.33;;;11.68;;
53245;SDS011;39569;51.090;-1.786;2023-05-07T01:01:01;109.85;;;13.63;;
53245;SDS011;39569;51.090;-1.786;2023-05-07T01:03:28;52.63;;;11.40;;
53245;SDS011;39569;51.090;-1.786;2023-05-07T01:05:55;50.17;;;11.13;;
53245;SDS011;39569;51.090;-1.786;2023-05-07T01:08:25;31.38;;;12.07;;
53245;SDS011;39569;51.090;-1.786;2023-05-07T01:10:55;29.98;;;15.02;;
53245;SDS011;39569;51.090;-1.786;2023-05-07T01:13:23;20.23;;;11.55;;
53245;SDS011;39569;51.090;-1.786;2023-05-07T01:15:51;35.40;;;13.57;;
53245;SDS011;39569;51.090;-1.786;2023-05-07T01:18:17;30.00;;;14.52;;
53245;SDS011;39569;51.090;-1.786;2023-05-07T01:20:44;70.30;;;14.32;;
53245;SDS011;39569;51.090;-1.786;2023-05-07T01:23:13;37.85;;;12.85;;
53245;SDS011;39569;51.090;-1.786;2023-05-07T01:25:40;56.55;;;12.93;;
53245;SDS011;39569;51.090;-1.786;2023-05-07T01:28:07;106.07;;;15.10;;
53245;SDS011;39569;51.090;-1.786;2023-05-07T01:30:34;46.67;;;14.50;;
53245;SDS011;39569;51.090;-1.786;2023-05-07T01:33:04;89.38;;;13.52;;
53245;SDS011;39569;51.090;-1.786;2023-05-07T01:35:34;93.75;;;13.90;;
53245;SDS011;39569;51.090;-1.786;2023-05-07T01:38:05;80.95;;;12.15;;
53245;SDS011;39569;51.090;-1.786;2023-05-07T01:40:34;113.57;;;14.63;;
53245;SDS011;39569;51.090;-1.786;2023-05-07T01:43:01;32.28;;;11.48;;
53245;SDS011;39569;51.090;-1.786;2023-05-07T01:45:28;69.47;;;11.35;;
53245;SDS011;39569;51.090;-1.786;2023-05-07T01:47:56;34.17;;;9.93;;
53245;SDS011;39569;51.090;-1.786;2023-05-07T01:50:24;34.08;;;9.23;;
53245;SDS011;39569;51.090;-1.786;2023-05-07T01:52:52;44.53;;;9.93;;
53245;SDS011;39569;51.090;-1.786;2023-05-07T01:55:19;73.13;;;12.80;;
53245;SDS011;39569;51.090;-1.786;2023-05-07T01:57:47;57.70;;;12.63;;
53245;SDS011;39569;51.090;-1.786;2023-05-07T02:00:13;44.25;;;11.15;;
53245;SDS011;39569;51.090;-1.786;2023-05-07T02:02:41;39.28;;;10.85;;
53245;SDS011;39569;51.090;-1.786;2023-05-07T02:05:08;76.22;;;10.02;;
53245;SDS011;39569;51.090;-1.786;2023-05-07T02:07:35;32.47;;;8.93;;
53245;SDS011;39569;51.090;-1.786;2023-05-07T02:10:02;17.23;;;10.60;;
53245;SDS011;39569;51.090;-1.786;2023-05-07T02:12:29;25.73;;;9.75;;
53245;SDS011;39569;51.090;-1.786;2023-05-07T02:14:57;34.42;;;11.32;;
53245;SDS011;39569;51.090;-1.786;2023-05-07T02:17:24;33.00;;;9.85;;
53245;SDS011;39569;51.090;-1.786;2023-05-07T02:19:51;18.90;;;10.20;;
53245;SDS011;39569;51.090;-1.786;2023-05-07T02:22:17;29.13;;;10.48;;
53245;SDS011;39569;51.090;-1.786;2023-05-07T02:24:44;64.22;;;12.40;;
53245;SDS011;39569;51.090;-1.786;2023-05-07T02:27:11;48.05;;;11.88;;
53245;SDS011;39569;51.090;-1.786;2023-05-07T02:29:38;99.63;;;14.55;;
53245;SDS011;39569;51.090;-1.786;2023-05-07T02:32:06;27.08;;;10.90;;
53245;SDS011;39569;51.090;-1.786;2023-05-07T02:34:33;41.15;;;11.82;;
53245;SDS011;39569;51.090;-1.786;2023-05-07T02:36:59;50.53;;;13.23;;
53245;SDS011;39569;51.090;-1.786;2023-05-07T02:39:26;36.13;;;17.42;;
53245;SDS011;39569;51.090;-1.786;2023-05-07T02:41:53;29.13;;;17.67;;
53245;SDS011;39569;51.090;-1.786;2023-05-07T02:44:20;31.85;;;28.23;;
53245;SDS011;39569;51.090;-1.786;2023-05-07T02:46:46;52.25;;;33.75;;
53245;SDS011;39569;51.090;-1.786;2023-05-07T02:49:14;39.40;;;26.67;;
53245;SDS011;39569;51.090;-1.786;2023-05-07T02:51:41;18.77;;;16.88;;
53245;SDS011;39569;51.090;-1.786;2023-05-07T02:54:08;24.42;;;16.10;;
53245;SDS011;39569;51.090;-1.786;2023-05-07T02:56:34;16.38;;;14.85;;
53245;SDS011;39569;51.090;-1.786;2023-05-07T02:59:01;17.77;;;13.98;;
53245;SDS011;39569;51.090;-1.786;2023-05-07T03:01:28;14.32;;;13.13;;
53245;SDS011;39569;51.090;-1.786;2023-05-07T03:03:55;14.52;;;12.40;;
53245;SDS011;39569;51.090;-1.786;2023-05-07T03:06:23;17.10;;;15.45;;
53245;SDS011;39569;51.090;-1.786;2023-05-07T03:08:51;16.98;;;15.27;;
53245;SDS011;39569;51.090;-1.786;2023-05-07T03:11:17;15.18;;;13.85;;
53245;SDS011;39569;51.090;-1.786;2023-05-07T03:13:44;18.77;;;16.92;;
53245;SDS011;39569;51.090;-1.786;2023-05-07T03:16:11;29.95;;;19.45;;
53245;SDS011;39569;51.090;-1.786;2023-05-07T03:18:38;26.25;;;19.65;;
53245;SDS011;39569;51.090;-1.786;2023-05-07T03:21:05;23.75;;;20.80;;
53245;SDS011;39569;51.090;-1.786;2023-05-07T03:23:33;39.40;;;23.15;;
53245;SDS011;39569;51.090;-1.786;2023-05-07T03:26:00;28.85;;;25.13;;
53245;SDS011;39569;51.090;-1.786;2023-05-07T03:28:26;32.78;;;26.85;;
53245;SDS011;39569;51.090;-1.786;2023-05-07T03:30:53;33.47;;;26.77;;
53245;SDS011;39569;51.090;-1.786;2023-05-07T03:33:20;43.72;;;28.45;;
53245;SDS011;39569;51.090;-1.786;2023-05-07T03:35:47;37.70;;;26.95;;
53245;SDS011;39569;51.090;-1.786;2023-05-07T03:38:13;40.97;;;30.15;;
53245;SDS011;39569;51.090;-1.786;2023-05-07T03:40:41;31.70;;;28.13;;
53245;SDS011;39569;51.090;-1.786;2023-05-07T03:43:08;44.35;;;28.90;;
53245;SDS011;39569;51.090;-1.786;2023-05-07T03:45:35;33.28;;;29.48;;
53245;SDS011;39569;51.090;-1.786;2023-05-07T03:48:02;38.78;;;27.73;;
53245;SDS011;39569;51.090;-1.786;2023-05-07T03:50:29;30.98;;;27.88;;
53245;SDS011;39569;51.090;-1.786;2023-05-07T03:52:56;35.95;;;26.17;;
53245;SDS011;39569;51.090;-1.786;2023-05-07T03:55:22;32.70;;;29.35;;
53245;SDS011;39569;51.090;-1.786;2023-05-07T03:57:51;34.60;;;28.60;;
53245;SDS011;39569;51.090;-1.786;2023-05-07T04:00:18;31.42;;;26.42;;
53245;SDS011;39569;51.090;-1.786;2023-05-07T04:02:45;27.13;;;24.38;;
53245;SDS011;39569;51.090;-1.786;2023-05-07T04:05:12;28.00;;;24.33;;
53245;SDS011;39569;51.090;-1.786;2023-05-07T04:07:40;27.60;;;22.88;;
53245;SDS011;39569;51.090;-1.786;2023-05-07T04:10:07;27.10;;;21.08;;
53245;SDS011;39569;51.090;-1.786;2023-05-07T04:12:35;28.52;;;24.33;;
53245;SDS011;39569;51.090;-1.786;2023-05-07T04:15:03;27.30;;;22.92;;
53245;SDS011;39569;51.090;-1.786;2023-05-07T04:17:30;25.55;;;22.83;;
53245;SDS011;39569;51.090;-1.786;2023-05-07T04:19:57;26.88;;;23.70;;
53245;SDS011;39569;51.090;-1.786;2023-05-07T04:22:23;32.50;;;24.13;;
53245;SDS011;39569;51.090;-1.786;2023-05-07T04:24:50;25.05;;;22.33;;
53245;SDS011;39569;51.090;-1.786;2023-05-07T04:27:17;25.10;;;21.17;;
53245;SDS011;39569;51.090;-1.786;2023-05-07T04:29:43;24.88;;;21.45;;
53245;SDS011;39569;51.090;-1.786;2023-05-07T04:32:13;30.58;;;25.67;;
53245;SDS011;39569;51.090;-1.786;2023-05-07T04:34:40;33.97;;;25.38;;
53245;SDS011;39569;51.090;-1.786;2023-05-07T04:37:07;27.02;;;24.33;;
53245;SDS011;39569;51.090;-1.786;2023-05-07T04:39:33;30.83;;;26.60;;
53245;SDS011;39569;51.090;-1.786;2023-05-07T04:42:00;34.65;;;27.15;;
53245;SDS011;39569;51.090;-1.786;2023-05-07T04:44:28;37.75;;;31.70;;
53245;SDS011;39569;51.090;-1.786;2023-05-07T04:46:56;35.85;;;31.98;;
53245;SDS011;39569;51.090;-1.786;2023-05-07T04:49:24;41.38;;;34.47;;
53245;SDS011;39569;51.090;-1.786;2023-05-07T04:51:50;47.45;;;41.85;;
53245;SDS011;39569;51.090;-1.786;2023-05-07T04:54:17;44.40;;;39.75;;
53245;SDS011;39569;51.090;-1.786;2023-05-07T04:56:44;50.95;;;41.33;;
53245;SDS011;39569;51.090;-1.786;2023-05-07T04:59:11;65.45;;;44.28;;
53245;SDS011;39569;51.090;-1.786;2023-05-07T05:01:37;64.72;;;48.25;;
53245;SDS011;39569;51.090;-1.786;2023-05-07T05:04:05;57.40;;;48.17;;
53245;SDS011;39569;51.090;-1.786;2023-05-07T05:06:33;52.55;;;46.47;;
53245;SDS011;39569;51.090;-1.786;2023-05-07T05:09:00;54.97;;;47.15;;
53245;SDS011;39569;51.090;-1.786;2023-05-07T05:11:27;57.53;;;48.88;;
53245;SDS011;39569;51.090;-1.786;2023-05-07T05:13:54;57.30;;;48.70;;
53245;SDS011;39569;51.090;-1.786;2023-05-07T05:16:20;50.67;;;45.10;;
53245;SDS011;39569;51.090;-1.786;2023-05-07T05:18:47;63.55;;;50.33;;
53245;SDS011;39569;51.090;-1.786;2023-05-07T05:21:14;49.20;;;43.85;;
53245;SDS011;39569;51.090;-1.786;2023-05-07T05:23:42;56.78;;;47.33;;
53245;SDS011;39569;51.090;-1.786;2023-05-07T05:26:08;51.30;;;45.80;;
53245;SDS011;39569;51.090;-1.786;2023-05-07T05:28:35;62.40;;;48.53;;
53245;SDS011;39569;51.090;-1.786;2023-05-07T05:31:02;61.72;;;50.35;;
53245;SDS011;39569;51.090;-1.786;2023-05-07T05:33:29;67.38;;;53.20;;
53245;SDS011;39569;51.090;-1.786;2023-05-07T05:35:55;72.07;;;53.03;;
53245;SDS011;39569;51.090;-1.786;2023-05-07T05:38:22;76.70;;;55.97;;
53245;SDS011;39569;51.090;-1.786;2023-05-07T05:40:50;61.90;;;52.58;;
53245;SDS011;39569;51.090;-1.786;2023-05-07T05:43:17;64.00;;;52.90;;
53245;SDS011;39569;51.090;-1.786;2023-05-07T05:45:44;63.95;;;48.97;;
53245;SDS011;39569;51.090;-1.786;2023-05-07T05:48:10;63.60;;;49.17;;
53245;SDS011;39569;51.090;-1.786;2023-05-07T05:50:37;60.38;;;49.55;;
53245;SDS011;39569;51.090;-1.786;2023-05-07T05:53:04;58.83;;;45.50;;
53245;SDS011;39569;51.090;-1.786;2023-05-07T05:55:31;59.38;;;48.20;;
53245;SDS011;39569;51.090;-1.786;2023-05-07T05:57:59;49.15;;;44.05;;
53245;SDS011;39569;51.090;-1.786;2023-05-07T06:00:27;49.70;;;44.42;;
53245;SDS011;39569;51.090;-1.786;2023-05-07T06:02:54;59.90;;;45.42;;
53245;SDS011;39569;51.090;-1.786;2023-05-07T06:05:20;59.67;;;44.47;;
53245;SDS011;39569;51.090;-1.786;2023-05-07T06:07:47;48.58;;;43.10;;
53245;SDS011;39569;51.090;-1.786;2023-05-07T06:10:14;49.60;;;41.40;;
53245;SDS011;39569;51.090;-1.786;2023-05-07T06:12:41;45.05;;;37.58;;
53245;SDS011;39569;51.090;-1.786;2023-05-07T06:15:09;48.88;;;39.22;;
53245;SDS011;39569;51.090;-1.786;2023-05-07T06:17:36;43.47;;;39.15;;
53245;SDS011;39569;51.090;-1.786;2023-05-07T06:20:03;44.92;;;38.75;;
53245;SDS011;39569;51.090;-1.786;2023-05-07T06:22:31;42.55;;;38.10;;
53245;SDS011;39569;51.090;-1.786;2023-05-07T06:24:58;43.85;;;39.22;;
53245;SDS011;39569;51.090;-1.786;2023-05-07T06:27:24;46.20;;;41.35;;
53245;SDS011;39569;51.090;-1.786;2023-05-07T06:29:53;45.83;;;40.90;;
53245;SDS011;39569;51.090;-1.786;2023-05-07T06:32:21;43.30;;;38.90;;
53245;SDS011;39569;51.090;-1.786;2023-05-07T06:34:47;38.40;;;34.22;;
53245;SDS011;39569;51.090;-1.786;2023-05-07T06:37:14;43.70;;;37.15;;
53245;SDS011;39569;51.090;-1.786;2023-05-07T06:39:41;42.78;;;35.35;;
53245;SDS011;39569;51.090;-1.786;2023-05-07T06:42:08;39.13;;;34.80;;
53245;SDS011;39569;51.090;-1.786;2023-05-07T06:44:34;41.15;;;36.80;;
53245;SDS011;39569;51.090;-1.786;2023-05-07T06:47:01;39.83;;;35.83;;
53245;SDS011;39569;51.090;-1.786;2023-05-07T06:49:29;42.90;;;37.28;;
53245;SDS011;39569;51.090;-1.786;2023-05-07T06:51:56;46.67;;;37.45;;
53245;SDS011;39569;51.090;-1.786;2023-05-07T06:54:23;41.28;;;36.95;;
53245;SDS011;39569;51.090;-1.786;2023-05-07T06:56:50;42.03;;;38.00;;
53245;SDS011;39569;51.090;-1.786;2023-05-07T06:59:16;45.28;;;40.58;;
53245;SDS011;39569;51.090;-1.786;2023-05-07T07:01:44;50.92;;;45.58;;
53245;SDS011;39569;51.090;-1.786;2023-05-07T07:04:11;54.47;;;46.95;;
53245;SDS011;39569;51.090;-1.786;2023-05-07T07:06:39;59.60;;;46.95;;
53245;SDS011;39569;51.090;-1.786;2023-05-07T07:09:05;50.45;;;45.40;;
53245;SDS011;39569;51.090;-1.786;2023-05-07T07:11:32;69.13;;;45.70;;
53245;SDS011;39569;51.090;-1.786;2023-05-07T07:13:59;50.08;;;44.47;;
53245;SDS011;39569;51.090;-1.786;2023-05-07T07:16:26;47.78;;;43.00;;
53245;SDS011;39569;51.090;-1.786;2023-05-07T07:18:52;51.88;;;46.42;;
53245;SDS011;39569;51.090;-1.786;2023-05-07T07:21:19;50.60;;;44.17;;
53245;SDS011;39569;51.090;-1.786;2023-05-07T07:23:47;49.03;;;44.05;;
53245;SDS011;39569;51.090;-1.786;2023-05-07T07:26:14;48.05;;;42.88;;
53245;SDS011;39569;51.090;-1.786;2023-05-07T07:28:43;46.95;;;42.33;;
53245;SDS011;39569;51.090;-1.786;2023-05-07T07:31:10;48.00;;;42.97;;
53245;SDS011;39569;51.090;-1.786;2023-05-07T07:33:37;49.78;;;38.35;;
53245;SDS011;39569;51.090;-1.786;2023-05-07T07:36:05;49.67;;;38.80;;
53245;SDS011;39569;51.090;-1.786;2023-05-07T07:38:32;38.72;;;34.83;;
53245;SDS011;39569;51.090;-1.786;2023-05-07T07:41:00;42.25;;;37.55;;
53245;SDS011;39569;51.090;-1.786;2023-05-07T07:43:28;39.33;;;33.25;;
53245;SDS011;39569;51.090;-1.786;2023-05-07T07:45:54;36.42;;;32.20;;
53245;SDS011;39569;51.090;-1.786;2023-05-07T07:48:21;39.38;;;31.27;;
53245;SDS011;39569;51.090;-1.786;2023-05-07T07:50:48;38.25;;;31.63;;
53245;SDS011;39569;51.090;-1.786;2023-05-07T07:53:15;37.00;;;33.17;;
53245;SDS011;39569;51.090;-1.786;2023-05-07T07:55:42;43.92;;;32.55;;
53245;SDS011;39569;51.090;-1.786;2023-05-07T07:58:10;32.60;;;29.33;;
53245;SDS011;39569;51.090;-1.786;2023-05-07T08:00:37;35.50;;;31.50;;
53245;SDS011;39569;51.090;-1.786;2023-05-07T08:03:03;38.95;;;28.25;;
53245;SDS011;39569;51.090;-1.786;2023-05-07T08:05:32;30.55;;;27.45;;
53245;SDS011;39569;51.090;-1.786;2023-05-07T08:07:59;31.20;;;27.90;;
53245;SDS011;39569;51.090;-1.786;2023-05-07T08:10:25;34.90;;;29.40;;
53245;SDS011;39569;51.090;-1.786;2023-05-07T08:12:52;42.80;;;24.90;;
53245;SDS011;39569;51.090;-1.786;2023-05-07T08:15:20;30.85;;;25.00;;
53245;SDS011;39569;51.090;-1.786;2023-05-07T08:17:47;34.85;;;26.80;;
53245;SDS011;39569;51.090;-1.786;2023-05-07T08:20:14;33.83;;;23.45;;
53245;SDS011;39569;51.090;-1.786;2023-05-07T08:22:41;26.98;;;24.05;;
53245;SDS011;39569;51.090;-1.786;2023-05-07T08:25:08;30.05;;;24.50;;
53245;SDS011;39569;51.090;-1.786;2023-05-07T08:27:35;28.58;;;22.45;;
53245;SDS011;39569;51.090;-1.786;2023-05-07T08:30:02;28.75;;;22.60;;
53245;SDS011;39569;51.090;-1.786;2023-05-07T08:32:31;27.90;;;23.30;;
53245;SDS011;39569;51.090;-1.786;2023-05-07T08:34:59;26.15;;;22.85;;
53245;SDS011;39569;51.090;-1.786;2023-05-07T08:37:26;25.80;;;21.55;;
53245;SDS011;39569;51.090;-1.786;2023-05-07T08:39:53;32.25;;;21.70;;
53245;SDS011;39569;51.090;-1.786;2023-05-07T08:42:20;36.70;;;22.63;;
53245;SDS011;39569;51.090;-1.786;2023-05-07T08:44:49;22.60;;;20.35;;
53245;SDS011;39569;51.090;-1.786;2023-05-07T08:47:19;29.95;;;22.35;;
53245;SDS011;39569;51.090;-1.786;2023-05-07T08:49:50;32.95;;;22.65;;
53245;SDS011;39569;51.090;-1.786;2023-05-07T08:52:17;23.38;;;20.02;;
53245;SDS011;39569;51.090;-1.786;2023-05-07T08:54:45;22.25;;;20.02;;
53245;SDS011;39569;51.090;-1.786;2023-05-07T08:57:12;22.63;;;19.10;;
53245;SDS011;39569;51.090;-1.786;2023-05-07T08:59:39;24.73;;;18.48;;
53245;SDS011;39569;51.090;-1.786;2023-05-07T09:02:06;15.77;;;14.10;;
53245;SDS011;39569;51.090;-1.786;2023-05-07T09:04:35;18.13;;;14.90;;
53245;SDS011;39569;51.090;-1.786;2023-05-07T09:07:03;15.85;;;14.32;;
53245;SDS011;39569;51.090;-1.786;2023-05-07T09:09:32;16.20;;;14.57;;
53245;SDS011;39569;51.090;-1.786;2023-05-07T09:11:59;20.42;;;13.82;;
53245;SDS011;39569;51.090;-1.786;2023-05-07T09:14:27;24.58;;;14.55;;
53245;SDS011;39569;51.090;-1.786;2023-05-07T09:16:54;16.50;;;14.80;;
53245;SDS011;39569;51.090;-1.786;2023-05-07T09:19:22;17.48;;;13.80;;
53245;SDS011;39569;51.090;-1.786;2023-05-07T09:21:49;18.13;;;14.25;;
53245;SDS011;39569;51.090;-1.786;2023-05-07T09:24:17;16.23;;;13.38;;
53245;SDS011;39569;51.090;-1.786;2023-05-07T09:26:44;13.52;;;11.90;;
53245;SDS011;39569;51.090;-1.786;2023-05-07T09:29:11;14.88;;;13.27;;
53245;SDS011;39569;51.090;-1.786;2023-05-07T09:31:37;13.27;;;11.88;;
53245;SDS011;39569;51.090;-1.786;2023-05-07T09:34:05;12.38;;;11.15;;
53245;SDS011;39569;51.090;-1.786;2023-05-07T09:36:31;23.45;;;11.98;;
53245;SDS011;39569;51.090;-1.786;2023-05-07T09:38:59;16.02;;;12.40;;
53245;SDS011;39569;51.090;-1.786;2023-05-07T09:41:27;14.02;;;12.63;;
53245;SDS011;39569;51.090;-1.786;2023-05-07T09:43:56;17.10;;;13.70;;
53245;SDS011;39569;51.090;-1.786;2023-05-07T09:46:27;11.63;;;10.60;;
53245;SDS011;39569;51.090;-1.786;2023-05-07T09:48:56;15.85;;;11.25;;
53245;SDS011;39569;51.090;-1.786;2023-05-07T09:51:24;13.82;;;9.95;;
53245;SDS011;39569;51.090;-1.786;2023-05-07T09:53:56;11.73;;;10.52;;
53245;SDS011;39569;51.090;-1.786;2023-05-07T09:56:25;12.18;;;10.43;;
53245;SDS011;39569;51.090;-1.786;2023-05-07T09:58:55;12.48;;;11.15;;
53245;SDS011;39569;51.090;-1.786;2023-05-07T10:01:23;22.20;;;10.90;;
53245;SDS011;39569;51.090;-1.786;2023-05-07T10:03:51;11.68;;;10.43;;
53245;SDS011;39569;51.090;-1.786;2023-05-07T10:06:19;14.73;;;10.13;;
53245;SDS011;39569;51.090;-1.786;2023-05-07T10:08:46;10.38;;;9.18;;
53245;SDS011;39569;51.090;-1.786;2023-05-07T10:11:14;14.82;;;8.57;;
53245;SDS011;39569;51.090;-1.786;2023-05-07T10:13:43;9.75;;;8.75;;
53245;SDS011;39569;51.090;-1.786;2023-05-07T10:16:12;10.95;;;7.97;;
53245;SDS011;39569;51.090;-1.786;2023-05-07T10:18:40;10.55;;;9.45;;
53245;SDS011;39569;51.090;-1.786;2023-05-07T10:21:07;11.45;;;9.07;;
53245;SDS011;39569;51.090;-1.786;2023-05-07T10:23:37;16.58;;;9.13;;
53245;SDS011;39569;51.090;-1.786;2023-05-07T10:26:06;14.27;;;9.40;;
53245;SDS011;39569;51.090;-1.786;2023-05-07T10:28:36;13.57;;;9.18;;
53245;SDS011;39569;51.090;-1.786;2023-05-07T10:31:11;10.13;;;7.97;;
53245;SDS011;39569;51.090;-1.786;2023-05-07T10:33:47;9.15;;;7.28;;
53245;SDS011;39569;51.090;-1.786;2023-05-07T10:36:16;9.40;;;8.00;;
53245;SDS011;39569;51.090;-1.786;2023-05-07T10:38:44;13.57;;;8.05;;
53245;SDS011;39569;51.090;-1.786;2023-05-07T10:41:11;10.98;;;8.52;;
53245;SDS011;39569;51.090;-1.786;2023-05-07T10:43:39;11.52;;;8.75;;
53245;SDS011;39569;51.090;-1.786;2023-05-07T10:46:13;15.73;;;7.53;;
53245;SDS011;39569;51.090;-1.786;2023-05-07T10:51:33;12.48;;;7.68;;
53245;SDS011;39569;51.090;-1.786;2023-05-07T10:54:20;7.75;;;6.90;;
53245;SDS011;39569;51.090;-1.786;2023-05-07T10:56:50;10.80;;;7.20;;
53245;SDS011;39569;51.090;-1.786;2023-05-07T11:02:09;8.65;;;6.95;;
53245;SDS011;39569;51.090;-1.786;2023-05-07T11:04:39;15.20;;;8.25;;
53245;SDS011;39569;51.090;-1.786;2023-05-07T11:09:57;14.88;;;9.23;;
53245;SDS011;39569;51.090;-1.786;2023-05-07T11:15:33;11.23;;;8.93;;
53245;SDS011;39569;51.090;-1.786;2023-05-07T11:18:05;12.45;;;10.18;;
53245;SDS011;39569;51.090;-1.786;2023-05-07T11:23:54;18.80;;;12.68;;
53245;SDS011;39569;51.090;-1.786;2023-05-07T11:26:23;17.08;;;12.43;;
53245;SDS011;39569;51.090;-1.786;2023-05-07T11:28:51;13.27;;;11.68;;
53245;SDS011;39569;51.090;-1.786;2023-05-07T11:31:20;13.60;;;12.32;;
53245;SDS011;39569;51.090;-1.786;2023-05-07T11:33:49;14.15;;;12.82;;
53245;SDS011;39569;51.090;-1.786;2023-05-07T11:36:17;17.48;;;13.20;;
53245;SDS011;39569;51.090;-1.786;2023-05-07T11:38:46;13.45;;;11.50;;
53245;SDS011;39569;51.090;-1.786;2023-05-07T11:41:13;12.32;;;10.75;;
53245;SDS011;39569;51.090;-1.786;2023-05-07T11:43:53;19.73;;;11.73;;
53245;SDS011;39569;51.090;-1.786;2023-05-07T11:46:21;18.30;;;10.30;;
53245;SDS011;39569;51.090;-1.786;2023-05-07T11:48:48;14.43;;;9.65;;
53245;SDS011;39569;51.090;-1.786;2023-05-07T11:51:19;9.75;;;8.77;;
53245;SDS011;39569;51.090;-1.786;2023-05-07T11:53:47;18.98;;;7.70;;
53245;SDS011;39569;51.090;-1.786;2023-05-07T11:56:15;19.23;;;7.72;;
53245;SDS011;39569;51.090;-1.786;2023-05-07T11:58:43;15.68;;;8.80;;
53245;SDS011;39569;51.090;-1.786;2023-05-07T12:01:12;12.15;;;7.82;;
53245;SDS011;39569;51.090;-1.786;2023-05-07T12:03:40;11.45;;;8.27;;
53245;SDS011;39569;51.090;-1.786;2023-05-07T12:06:10;10.32;;;7.00;;
53245;SDS011;39569;51.090;-1.786;2023-05-07T12:08:37;10.55;;;6.82;;
53245;SDS011;39569;51.090;-1.786;2023-05-07T12:11:07;13.48;;;7.53;;
53245;SDS011;39569;51.090;-1.786;2023-05-07T12:13:36;8.93;;;6.03;;
53245;SDS011;39569;51.090;-1.786;2023-05-07T12:16:03;5.60;;;5.00;;
53245;SDS011;39569;51.090;-1.786;2023-05-07T12:18:32;11.05;;;5.60;;
53245;SDS011;39569;51.090;-1.786;2023-05-07T12:21:00;9.93;;;4.80;;
53245;SDS011;39569;51.090;-1.786;2023-05-07T12:23:28;14.63;;;6.45;;
53245;SDS011;39569;51.090;-1.786;2023-05-07T12:25:56;12.05;;;4.90;;
53245;SDS011;39569;51.090;-1.786;2023-05-07T12:28:22;9.45;;;5.15;;
53245;SDS011;39569;51.090;-1.786;2023-05-07T12:30:50;7.10;;;3.90;;
53245;SDS011;39569;51.090;-1.786;2023-05-07T12:33:17;5.93;;;3.83;;
53245;SDS011;39569;51.090;-1.786;2023-05-07T12:35:46;6.78;;;3.78;;
53245;SDS011;39569;51.090;-1.786;2023-05-07T12:38:15;5.00;;;3.20;;
53245;SDS011;39569;51.090;-1.786;2023-05-07T12:40:45;8.80;;;3.53;;
53245;SDS011;39569;51.090;-1.786;2023-05-07T12:43:16;6.32;;;3.42;;
53245;SDS011;39569;51.090;-1.786;2023-05-07T12:45:43;4.30;;;2.60;;
53245;SDS011;39569;51.090;-1.786;2023-05-07T12:48:10;5.07;;;3.22;;
53245;SDS011;39569;51.090;-1.786;2023-05-07T12:50:38;3.55;;;3.13;;
53245;SDS011;39569;51.090;-1.786;2023-05-07T12:53:05;3.85;;;3.05;;
53245;SDS011;39569;51.090;-1.786;2023-05-07T12:55:39;5.53;;;3.10;;
53245;SDS011;39569;51.090;-1.786;2023-05-07T12:58:09;6.72;;;3.28;;
53245;SDS011;39569;51.090;-1.786;2023-05-07T13:00:42;14.60;;;13.07;;
53245;SDS011;39569;51.090;-1.786;2023-05-07T13:03:09;6.00;;;3.85;;
53245;SDS011;39569;51.090;-1.786;2023-05-07T13:05:36;5.70;;;4.40;;
53245;SDS011;39569;51.090;-1.786;2023-05-07T13:08:03;27.25;;;16.27;;
53245;SDS011;39569;51.090;-1.786;2023-05-07T13:10:30;12.63;;;5.25;;
53245;SDS011;39569;51.090;-1.786;2023-05-07T13:12:57;5.13;;;3.58;;
53245;SDS011;39569;51.090;-1.786;2023-05-07T13:15:26;3.13;;;2.42;;
53245;SDS011;39569;51.090;-1.786;2023-05-07T13:17:53;5.97;;;3.78;;
53245;SDS011;39569;51.090;-1.786;2023-05-07T13:20:21;14.70;;;2.90;;
53245;SDS011;39569;51.090;-1.786;2023-05-07T13:22:48;21.90;;;8.20;;
53245;SDS011;39569;51.090;-1.786;2023-05-07T13:25:14;19.30;;;9.55;;
53245;SDS011;39569;51.090;-1.786;2023-05-07T13:27:41;42.78;;;19.67;;
53245;SDS011;39569;51.090;-1.786;2023-05-07T13:30:08;10.43;;;4.00;;
53245;SDS011;39569;51.090;-1.786;2023-05-07T13:32:37;4.47;;;3.65;;
53245;SDS011;39569;51.090;-1.786;2023-05-07T13:35:04;8.85;;;5.25;;
53245;SDS011;39569;51.090;-1.786;2023-05-07T13:37:31;6.50;;;3.55;;
53245;SDS011;39569;51.090;-1.786;2023-05-07T13:39:58;4.43;;;3.85;;
53245;SDS011;39569;51.090;-1.786;2023-05-07T13:42:24;6.25;;;4.00;;
53245;SDS011;39569;51.090;-1.786;2023-05-07T13:44:51;9.70;;;5.22;;
53245;SDS011;39569;51.090;-1.786;2023-05-07T13:47:18;12.20;;;4.65;;
53245;SDS011;39569;51.090;-1.786;2023-05-07T13:49:46;8.35;;;5.05;;
53245;SDS011;39569;51.090;-1.786;2023-05-07T13:52:14;14.60;;;5.50;;
53245;SDS011;39569;51.090;-1.786;2023-05-07T13:54:41;5.47;;;4.97;;
53245;SDS011;39569;51.090;-1.786;2023-05-07T13:57:08;5.28;;;4.35;;
53245;SDS011;39569;51.090;-1.786;2023-05-07T13:59:34;7.05;;;4.78;;
53245;SDS011;39569;51.090;-1.786;2023-05-07T14:02:01;9.02;;;5.18;;
53245;SDS011;39569;51.090;-1.786;2023-05-07T14:04:28;10.82;;;5.40;;
53245;SDS011;39569;51.090;-1.786;2023-05-07T14:06:56;8.00;;;5.63;;
53245;SDS011;39569;51.090;-1.786;2023-05-07T14:09:23;23.38;;;5.93;;
53245;SDS011;39569;51.090;-1.786;2023-05-07T14:11:50;6.55;;;5.25;;
53245;SDS011;39569;51.090;-1.786;2023-05-07T14:14:17;13.35;;;7.50;;
53245;SDS011;39569;51.090;-1.786;2023-05-07T14:16:44;5.28;;;4.85;;
53245;SDS011;39569;51.090;-1.786;2023-05-07T14:19:11;7.78;;;5.13;;
53245;SDS011;39569;51.090;-1.786;2023-05-07T14:21:37;5.45;;;4.38;;
53245;SDS011;39569;51.090;-1.786;2023-05-07T14:24:06;8.80;;;4.85;;
53245;SDS011;39569;51.090;-1.786;2023-05-07T14:26:33;4.13;;;3.72;;
53245;SDS011;39569;51.090;-1.786;2023-05-07T14:29:00;5.55;;;4.78;;
53245;SDS011;39569;51.090;-1.786;2023-05-07T14:31:27;4.90;;;4.38;;